createdAt,value
2019-02-14T00:04:09.599Z,8.77
2019-02-14T00:06:57.231Z,8.90
2019-02-14T00:09:25.621Z,8.75
2019-02-14T00:12:13.337Z,8.62
2019-02-14T00:14:41.720Z,8.73
2019-02-14T00:17:10.105Z,8.83
2019-02-14T00:19:57.608Z,8.88
2019-02-14T00:22:25.997Z,8.90
2019-02-14T00:25:13.624Z,8.83
2019-02-14T00:28:01.128Z,8.81
2019-02-14T00:30:48.626Z,8.92
2019-02-14T00:33:36.131Z,8.88
2019-02-14T00:36:23.754Z,8.94
2019-02-14T00:38:52.138Z,8.79
2019-02-14T00:41:20.518Z,8.62
2019-02-14T00:44:08.248Z,8.59
2019-02-14T00:46:55.871Z,8.61
2019-02-14T00:49:43.506Z,8.62
2019-02-14T00:54:59.336Z,8.61
2019-02-14T00:57:27.732Z,8.67
2019-02-14T00:59:56.116Z,8.66
2019-02-14T01:02:43.622Z,8.73
2019-02-14T01:05:12.299Z,8.74
2019-02-14T01:07:40.691Z,8.65
2019-02-14T01:15:51.136Z,8.41
2019-02-14T01:18:38.642Z,8.38
2019-02-14T01:21:07.019Z,8.37
2019-02-14T01:23:35.408Z,8.05
2019-02-14T01:28:52.893Z,8.10
2019-02-14T01:31:40.382Z,7.90
2019-02-14T01:34:27.920Z,7.75
2019-02-14T01:37:15.515Z,7.83
2019-02-14T01:39:43.899Z,7.91
2019-02-14T01:42:31.618Z,7.99
2019-02-14T01:47:52.609Z,7.92
2019-02-14T01:50:40.246Z,7.98
2019-02-14T01:53:27.875Z,7.85
2019-02-14T01:55:56.250Z,7.76
2019-02-14T01:58:24.640Z,7.63
2019-02-14T02:00:53.021Z,7.70
2019-02-14T02:03:21.410Z,7.62
2019-02-14T02:05:51.054Z,7.69
2019-02-14T02:11:14.848Z,7.66
2019-02-14T02:13:43.228Z,7.66
2019-02-14T02:16:23.755Z,7.70
2019-02-14T02:19:11.387Z,7.70
2019-02-14T02:21:59.117Z,7.65
2019-02-14T02:24:46.630Z,7.72
2019-02-14T02:27:34.120Z,7.78
2019-02-14T02:30:21.643Z,7.90
2019-02-14T02:32:49.999Z,7.93
2019-02-14T02:35:18.395Z,7.82
2019-02-14T02:37:46.784Z,7.80
2019-02-14T02:42:48.841Z,7.80
2019-02-14T02:45:17.265Z,7.88
2019-02-14T02:47:45.604Z,7.83
2019-02-14T02:50:14.247Z,7.82
2019-02-14T02:52:42.637Z,7.79
2019-02-14T02:55:50.931Z,7.78
2019-02-14T02:58:19.300Z,7.70
2019-02-14T03:03:41.029Z,7.55
2019-02-14T03:06:28.671Z,7.63
2019-02-14T03:08:57.055Z,7.61
2019-02-14T03:11:44.553Z,7.51
2019-02-14T03:19:43.314Z,7.40
2019-02-14T03:22:11.699Z,7.41
2019-02-14T03:24:40.093Z,7.35
2019-02-14T03:29:55.923Z,7.38
2019-02-14T03:32:24.309Z,7.19
2019-02-14T03:34:52.693Z,7.23
2019-02-14T03:37:21.074Z,7.26
2019-02-14T03:39:49.479Z,7.10
2019-02-14T03:42:17.860Z,7.09
2019-02-14T03:45:05.496Z,7.05
2019-02-14T03:47:33.874Z,7.12
2019-02-14T03:50:02.264Z,6.94
2019-02-14T03:53:10.552Z,6.97
2019-02-14T03:55:58.050Z,6.87
2019-02-14T03:58:45.541Z,6.70
2019-02-14T04:01:13.930Z,6.50
2019-02-14T04:04:01.552Z,6.36
2019-02-14T04:06:29.940Z,6.37
2019-02-14T04:09:17.431Z,6.33
2019-02-14T04:14:39.470Z,6.08
2019-02-14T04:17:07.860Z,6.17
2019-02-14T04:19:55.488Z,6.13
2019-02-14T04:22:23.875Z,6.09
2019-02-14T04:25:11.509Z,5.98
2019-02-14T04:27:39.890Z,6.07
2019-02-14T04:30:27.642Z,6.02
2019-02-14T04:33:15.268Z,5.95
2019-02-14T04:36:02.778Z,5.78
2019-02-14T04:38:31.150Z,5.80
2019-02-14T04:41:18.787Z,5.86
2019-02-14T04:43:47.168Z,5.97
2019-02-14T04:48:49.952Z,5.94
2019-02-14T04:51:18.338Z,6.15
2019-02-14T04:53:46.716Z,6.19
2019-02-14T04:56:55.008Z,6.33
2019-02-14T04:59:42.504Z,6.48
2019-02-14T05:02:10.932Z,6.58
2019-02-14T05:04:58.423Z,6.53
2019-02-14T05:07:26.817Z,6.50
2019-02-14T05:09:55.195Z,6.40
2019-02-14T05:12:23.583Z,6.39
2019-02-14T05:15:11.254Z,6.42
2019-02-14T05:17:39.601Z,6.47
2019-02-14T05:20:27.318Z,6.44
2019-02-14T05:22:55.710Z,6.48
2019-02-14T05:25:24.087Z,6.49
2019-02-14T05:27:52.478Z,6.53
2019-02-14T05:33:08.306Z,6.42
2019-02-14T05:35:55.943Z,6.43
2019-02-14T05:38:24.321Z,6.39
2019-02-14T05:41:11.812Z,6.32
2019-02-14T05:43:40.199Z,6.16
2019-02-14T05:46:08.636Z,6.04
2019-02-14T05:48:37.024Z,5.96
2019-02-14T05:51:24.521Z,5.74
2019-02-14T05:54:12.259Z,5.75
2019-02-14T05:56:40.639Z,5.78
2019-02-14T05:59:09.020Z,5.83
2019-02-14T06:01:56.515Z,5.81
2019-02-14T06:04:24.909Z,5.85
2019-02-14T06:07:12.404Z,5.71
2019-02-14T06:09:40.798Z,5.70
2019-02-14T06:12:09.178Z,5.73
2019-02-14T06:14:56.811Z,5.67
2019-02-14T06:17:44.311Z,5.76
2019-02-14T06:20:52.599Z,5.80
2019-02-14T06:23:21.023Z,5.76
2019-02-14T06:26:08.482Z,5.52
2019-02-14T06:28:37.377Z,5.36
2019-02-14T06:31:06.970Z,5.39
2019-02-14T06:33:54.473Z,5.36
2019-02-14T06:36:22.854Z,5.42
2019-02-14T06:38:51.249Z,5.25
2019-02-14T06:41:19.624Z,5.34
2019-02-14T06:43:48.011Z,5.41
2019-02-14T06:46:35.508Z,5.35
2019-02-14T06:49:03.896Z,5.39
2019-02-14T06:54:19.739Z,5.39
2019-02-14T06:56:48.112Z,5.42
2019-02-14T06:59:35.747Z,5.33
2019-02-14T07:02:23.376Z,5.08
2019-02-14T07:04:51.784Z,5.15
2019-02-14T07:07:39.402Z,5.21
2019-02-14T07:10:47.703Z,5.18
2019-02-14T07:13:35.335Z,5.17
2019-02-14T07:16:03.727Z,5.15
2019-02-14T07:18:32.143Z,5.31
2019-02-14T07:21:19.652Z,5.43
2019-02-14T07:24:07.156Z,5.60
2019-02-14T07:29:22.988Z,5.92
2019-02-14T07:37:12.515Z,6.50
2019-02-14T07:39:40.952Z,6.69
2019-02-14T07:42:15.654Z,6.58
2019-02-14T07:45:03.342Z,6.62
2019-02-14T07:47:31.720Z,6.98
2019-02-14T07:50:00.331Z,7.71
2019-02-14T07:52:49.597Z,8.41
2019-02-14T07:55:18.066Z,8.90
2019-02-14T07:57:46.459Z,9.20
2019-02-14T08:00:54.754Z,9.53
2019-02-14T08:03:23.140Z,10.42
2019-02-14T08:06:10.644Z,11.93
2019-02-14T08:08:58.146Z,12.55
2019-02-14T08:11:26.537Z,13.69
2019-02-14T08:13:54.921Z,14.99
2019-02-14T08:16:23.322Z,16.08
2019-02-14T08:21:58.399Z,16.76
2019-02-14T08:24:46.036Z,17.46
2019-02-14T08:29:48.663Z,18.32
2019-02-14T08:32:36.416Z,19.55
2019-02-14T08:35:44.715Z,19.55
2019-02-14T08:38:32.340Z,19.56
2019-02-14T08:41:19.858Z,19.30
2019-02-14T08:43:48.258Z,19.81
2019-02-14T08:46:35.886Z,19.86
2019-02-14T08:49:23.388Z,20.09
2019-02-14T08:51:51.779Z,20.48
2019-02-14T08:54:20.165Z,20.80
2019-02-14T08:57:07.678Z,20.45
2019-02-14T08:59:36.061Z,20.30
2019-02-14T09:02:04.457Z,20.60
2019-02-14T09:07:20.294Z,20.68
2019-02-14T09:10:28.643Z,20.78
2019-02-14T09:13:04.744Z,21.08
2019-02-14T09:15:33.145Z,20.51
2019-02-14T09:18:20.788Z,20.00
2019-02-14T09:21:08.287Z,19.97
2019-02-14T09:23:55.928Z,20.43
2019-02-14T09:26:24.558Z,21.05
2019-02-14T09:34:54.673Z,21.32
2019-02-14T09:37:42.182Z,20.85
2019-02-14T09:40:50.481Z,20.92
2019-02-14T09:45:52.792Z,21.24
2019-02-14T09:48:40.444Z,20.94
2019-02-14T09:51:08.822Z,20.70
2019-02-14T09:53:37.200Z,19.88
2019-02-14T09:56:05.590Z,20.36
2019-02-14T09:58:53.226Z,20.78
2019-02-14T10:01:21.612Z,21.10
2019-02-14T10:04:09.245Z,21.24
2019-02-14T10:06:56.877Z,20.44
2019-02-14T10:09:44.382Z,20.10
2019-02-14T10:14:46.744Z,19.88
2019-02-14T10:17:22.019Z,19.40
2019-02-14T10:19:45.257Z,19.43
2019-02-14T10:22:32.888Z,19.99
2019-02-14T10:25:20.520Z,19.95
2019-02-14T10:27:48.929Z,19.67
2019-02-14T10:30:57.225Z,20.10
2019-02-14T10:33:44.734Z,19.42
2019-02-14T10:36:13.118Z,18.08
2019-02-14T10:38:41.530Z,18.55
2019-02-14T10:41:29.397Z,18.96
2019-02-14T10:44:18.754Z,18.74
2019-02-14T10:46:47.137Z,18.96
2019-02-14T10:49:15.533Z,19.39
2019-02-14T10:52:03.265Z,18.94
2019-02-14T10:54:31.652Z,18.70
2019-02-14T10:57:19.286Z,18.86
2019-02-14T11:03:23.030Z,18.13
2019-02-14T11:06:31.433Z,17.83
2019-02-14T11:08:59.832Z,17.10
2019-02-14T11:11:28.216Z,16.71
2019-02-14T11:13:56.617Z,16.47
2019-02-14T11:16:44.117Z,16.51
2019-02-14T11:19:12.507Z,16.30
2019-02-14T11:22:00.006Z,15.41
2019-02-14T11:24:47.512Z,15.53
2019-02-14T11:27:35.211Z,15.34
2019-02-14T11:30:43.521Z,15.47
2019-02-14T11:35:59.442Z,15.09
2019-02-14T11:38:27.833Z,14.61
2019-02-14T11:41:15.546Z,14.64
2019-02-14T11:43:43.935Z,14.57
2019-02-14T11:46:12.326Z,14.68
2019-02-14T11:49:00.044Z,14.66
2019-02-14T11:51:28.446Z,14.26
2019-02-14T11:54:15.952Z,13.79
2019-02-14T11:57:03.567Z,13.47
2019-02-14T11:59:51.075Z,13.45
2019-02-14T12:02:38.575Z,13.28
2019-02-14T12:05:46.863Z,13.20
2019-02-14T12:08:15.240Z,13.12
2019-02-14T12:11:02.896Z,13.14
2019-02-14T12:13:31.258Z,13.21
2019-02-14T12:16:18.887Z,13.34
2019-02-14T12:19:06.515Z,13.51
2019-02-14T12:21:34.890Z,13.26
2019-02-14T12:24:03.266Z,13.32
2019-02-14T12:26:50.904Z,13.54
2019-02-14T12:29:19.295Z,13.48
2019-02-14T12:31:47.671Z,13.56
2019-02-14T12:34:16.042Z,13.61
2019-02-14T12:37:03.549Z,13.69
2019-02-14T12:39:31.927Z,13.50
2019-02-14T12:42:19.548Z,13.58
2019-02-14T12:44:47.931Z,13.84
2019-02-14T12:47:16.321Z,14.01
2019-02-14T12:49:44.822Z,13.93
2019-02-14T12:52:13.205Z,14.11
2019-02-14T12:55:00.872Z,14.53
2019-02-14T12:57:29.287Z,14.32
2019-02-14T12:59:57.754Z,14.23
2019-02-14T13:02:26.127Z,14.25
2019-02-14T13:05:13.775Z,14.63
2019-02-14T13:08:01.506Z,14.61
2019-02-14T13:10:49.036Z,14.74
2019-02-14T13:13:17.452Z,14.80
2019-02-14T13:16:05.119Z,14.80
2019-02-14T13:18:33.529Z,14.93
2019-02-14T13:21:01.961Z,15.20
2019-02-14T13:23:49.610Z,15.33
2019-02-14T13:26:37.264Z,14.97
2019-02-14T13:29:24.896Z,15.31
2019-02-14T13:31:53.329Z,14.97
2019-02-14T13:34:21.755Z,14.95
2019-02-14T13:36:50.184Z,15.13
2019-02-14T13:39:37.731Z,15.33
2019-02-14T13:42:06.470Z,15.08
2019-02-14T13:44:34.886Z,14.96
2019-02-14T13:47:03.320Z,14.88
2019-02-14T13:49:50.856Z,14.80
2019-02-14T13:52:19.288Z,14.60
2019-02-14T13:54:47.673Z,14.68
2019-02-14T13:57:16.090Z,14.80
2019-02-14T13:59:44.489Z,14.93
2019-02-14T14:02:12.895Z,15.03
2019-02-14T14:04:41.287Z,14.49
2019-02-14T14:07:28.934Z,14.14
2019-02-14T14:10:16.527Z,14.40
2019-02-14T14:13:04.032Z,14.63
2019-02-14T14:18:19.851Z,14.35
2019-02-14T14:21:07.351Z,14.36
2019-02-14T14:23:35.724Z,14.29
2019-02-14T14:26:23.363Z,14.23
2019-02-14T14:29:10.987Z,14.65
2019-02-14T14:31:39.373Z,14.65
2019-02-14T14:34:27.096Z,14.71
2019-02-14T14:37:14.730Z,14.63
2019-02-14T14:39:47.719Z,14.92
2019-02-14T14:50:01.667Z,14.78
2019-02-14T14:52:30.052Z,14.68
2019-02-14T14:55:17.543Z,14.81
2019-02-14T14:57:45.927Z,14.78
2019-02-14T15:00:33.544Z,14.91
2019-02-14T15:03:01.922Z,14.89
2019-02-14T15:05:49.548Z,14.93
2019-02-14T15:08:37.051Z,14.74
2019-02-14T15:13:52.874Z,14.29
2019-02-14T15:16:40.358Z,14.26
2019-02-14T15:19:27.859Z,14.34
2019-02-14T15:21:56.508Z,14.45
2019-02-14T15:24:44.009Z,14.09
2019-02-14T15:27:12.396Z,14.15
2019-02-14T15:32:47.340Z,14.43
2019-02-14T15:35:15.708Z,14.56
2019-02-14T15:38:03.431Z,14.72
2019-02-14T15:40:50.940Z,14.74
2019-02-14T15:43:38.443Z,14.74
2019-02-14T15:46:25.940Z,14.73
2019-02-14T15:48:54.323Z,14.77
2019-02-14T15:51:43.739Z,14.75
2019-02-14T15:56:45.731Z,14.49
2019-02-14T15:59:14.118Z,14.49
2019-02-14T16:01:44.363Z,14.44
2019-02-14T16:04:12.605Z,14.41
2019-02-14T16:07:00.218Z,14.33
2019-02-14T16:09:28.853Z,14.28
2019-02-14T16:11:57.888Z,13.83
2019-02-14T16:14:27.343Z,13.77
2019-02-14T16:22:19.445Z,13.50
2019-02-14T16:24:47.744Z,13.45
2019-02-14T16:27:16.426Z,13.33
2019-02-14T16:29:46.797Z,13.24
2019-02-14T16:32:34.022Z,13.18
2019-02-14T16:35:02.406Z,13.15
2019-02-14T16:37:50.595Z,13.06
2019-02-14T16:40:39.114Z,12.83
2019-02-14T16:43:07.512Z,12.77
2019-02-14T16:45:55.145Z,12.57
2019-02-14T16:48:42.649Z,12.56
2019-02-14T16:51:11.025Z,12.44
2019-02-14T16:53:39.408Z,12.40
2019-02-14T16:56:27.026Z,12.29
2019-02-14T16:58:55.430Z,12.26
2019-02-14T17:01:43.063Z,12.08
2019-02-14T17:04:11.468Z,12.04
2019-02-14T17:06:58.965Z,11.98
2019-02-14T17:09:27.356Z,11.95
2019-02-14T17:12:14.980Z,11.88
2019-02-14T17:15:02.612Z,11.82
2019-02-14T17:17:30.989Z,11.76
2019-02-14T17:20:18.621Z,11.64
2019-02-14T17:22:47.005Z,11.53
2019-02-14T17:25:17.202Z,11.46
2019-02-14T17:27:45.508Z,11.26
2019-02-14T17:30:33.018Z,11.09
2019-02-14T17:33:20.636Z,11.03
2019-02-14T17:38:42.735Z,10.81
2019-02-14T17:41:11.120Z,10.74
2019-02-14T17:43:58.759Z,10.72
2019-02-14T17:46:46.253Z,10.71
2019-02-14T17:51:49.150Z,10.43
2019-02-14T17:54:17.529Z,10.40
2019-02-14T17:57:05.018Z,10.33
2019-02-14T17:59:33.397Z,10.32
2019-02-14T18:02:01.777Z,10.25
2019-02-14T18:04:49.407Z,10.25
2019-02-14T18:07:17.793Z,10.05
2019-02-14T18:09:46.178Z,10.02
2019-02-14T18:12:14.546Z,9.99
2019-02-14T18:14:42.927Z,9.88
2019-02-14T18:17:30.546Z,9.91
2019-02-14T18:19:58.932Z,9.90
2019-02-14T18:22:46.558Z,9.83
2019-02-14T18:25:54.852Z,9.69
2019-02-14T18:28:42.576Z,9.54
2019-02-14T18:31:30.203Z,9.38
2019-02-14T18:34:17.689Z,9.22
2019-02-14T18:36:46.070Z,9.02
2019-02-14T18:39:33.696Z,8.87
2019-02-14T18:42:21.309Z,8.83
2019-02-14T18:44:49.692Z,8.68
2019-02-14T18:47:18.061Z,8.61
2019-02-14T18:49:46.467Z,8.48
2019-02-14T18:52:33.932Z,8.33
2019-02-14T18:55:02.317Z,8.26
2019-02-14T18:57:30.712Z,8.21
2019-02-14T19:02:33.119Z,8.00
2019-02-14T19:05:20.618Z,7.98
2019-02-14T19:07:48.986Z,7.91
2019-02-14T19:10:57.287Z,7.82
2019-02-14T19:13:44.901Z,7.74
2019-02-14T19:16:32.530Z,7.66
2019-02-14T19:19:20.164Z,7.63
2019-02-14T19:21:48.543Z,7.46
2019-02-14T19:24:18.706Z,7.30
2019-02-14T19:27:06.161Z,7.30
2019-02-14T19:29:53.783Z,7.22
2019-02-14T19:32:41.306Z,7.21
2019-02-14T19:35:49.584Z,7.12
2019-02-14T19:38:17.961Z,7.08
2019-02-14T19:40:46.351Z,7.01
2019-02-14T19:43:14.733Z,6.98
2019-02-14T19:46:02.464Z,6.81
2019-02-14T19:48:50.103Z,6.79
2019-02-14T19:51:18.513Z,6.71
2019-02-14T19:53:46.912Z,6.67
2019-02-14T19:56:15.304Z,6.61
2019-02-14T19:59:02.950Z,6.54
2019-02-14T20:01:50.588Z,6.50
2019-02-14T20:04:18.972Z,6.24
2019-02-14T20:07:06.477Z,5.96
2019-02-14T20:09:34.855Z,5.96
2019-02-14T20:12:22.502Z,5.99
2019-02-14T20:14:50.884Z,6.03
2019-02-14T20:17:38.761Z,6.02
2019-02-14T20:20:47.117Z,5.99
2019-02-14T20:26:22.235Z,5.86
2019-02-14T20:28:50.617Z,5.89
2019-02-14T20:31:19.102Z,5.87
2019-02-14T20:34:06.599Z,5.79
2019-02-14T20:36:34.988Z,5.78
2019-02-14T20:41:52.471Z,5.80
2019-02-14T20:44:40.091Z,5.75
2019-02-14T20:47:27.612Z,5.67
2019-02-14T20:49:56.015Z,5.65
2019-02-14T20:52:24.420Z,5.62
2019-02-14T20:57:40.244Z,5.56
2019-02-14T21:00:48.536Z,5.52
2019-02-14T21:03:16.961Z,5.48
2019-02-14T21:06:04.764Z,5.40
2019-02-14T21:08:52.403Z,5.38
2019-02-14T21:11:20.794Z,5.36
2019-02-14T21:14:08.422Z,5.35
2019-02-14T21:16:36.811Z,5.39
2019-02-14T21:19:24.304Z,5.39
2019-02-14T21:21:52.958Z,5.38
2019-02-14T21:24:21.332Z,5.40
2019-02-14T21:27:08.987Z,5.35
2019-02-14T21:29:56.623Z,5.33
2019-02-14T21:32:44.256Z,5.31
2019-02-14T21:35:52.790Z,5.26
2019-02-14T21:38:21.174Z,5.21
2019-02-14T21:40:50.013Z,5.04
2019-02-14T21:43:37.978Z,4.95
2019-02-14T21:46:25.505Z,4.99
2019-02-14T21:48:54.165Z,4.92
2019-02-14T21:51:41.856Z,4.53
2019-02-14T21:54:29.481Z,4.38
2019-02-14T21:57:17.123Z,4.42
2019-02-14T21:59:45.496Z,4.46
2019-02-14T22:04:47.889Z,4.53
2019-02-14T22:07:35.778Z,4.40
2019-02-14T22:10:44.063Z,4.36
2019-02-14T22:13:12.455Z,4.29
2019-02-14T22:15:40.828Z,4.28
2019-02-14T22:18:09.226Z,4.29
2019-02-14T22:20:37.600Z,4.32
2019-02-14T22:30:48.548Z,4.25
2019-02-14T22:33:16.938Z,4.10
2019-02-14T22:36:04.444Z,4.12
2019-02-14T22:38:32.833Z,3.99
2019-02-14T22:41:20.455Z,3.77
2019-02-14T22:43:48.836Z,3.82
2019-02-14T22:46:17.212Z,3.84
2019-02-14T22:48:45.590Z,3.84
2019-02-14T22:51:13.962Z,3.83
2019-02-14T22:53:42.345Z,3.85
2019-02-14T22:56:29.967Z,3.82
2019-02-14T23:01:32.194Z,3.77
2019-02-14T23:04:19.695Z,3.45
2019-02-14T23:06:48.070Z,3.51
2019-02-14T23:11:51.641Z,3.60
2019-02-14T23:14:20.030Z,3.60
2019-02-14T23:20:14.073Z,3.61
2019-02-14T23:25:29.889Z,3.55
2019-02-14T23:28:17.810Z,3.58
2019-02-14T23:31:05.431Z,3.58
2019-02-14T23:33:34.050Z,3.58
2019-02-14T23:36:21.677Z,3.56
2019-02-14T23:38:50.058Z,3.55
2019-02-14T23:41:18.430Z,3.49
2019-02-14T23:43:46.818Z,3.44
2019-02-14T23:46:34.310Z,3.42
2019-02-14T23:49:02.691Z,3.40
2019-02-14T23:54:18.511Z,3.41
2019-02-14T23:57:06.135Z,3.39
2019-02-14T23:59:53.643Z,3.35
